sensor_id;sensor_type;location;lat;lon;timestamp;P1;durP1;ratioP1;P2;durP2;ratioP2
23496;SDS011;11925;48.122;11.560;2023-05-07T00:01:45;8.70;;;7.40;;
23496;SDS011;11925;48.122;11.560;2023-05-07T00:04:14;11.18;;;8.15;;
23496;SDS011;11925;48.122;11.560;2023-05-07T00:06:42;11.50;;;7.93;;
23496;SDS011;11925;48.122;11.560;2023-05-07T00:09:11;10.73;;;7.95;;
23496;SDS011;11925;48.122;11.560;2023-05-07T00:11:39;10.85;;;7.43;;
23496;SDS011;11925;48.122;11.560;2023-05-07T00:14:07;8.43;;;7.45;;
23496;SDS011;11925;48.122;11.560;2023-05-07T00:16:37;12.30;;;7.82;;
23496;SDS011;11925;48.122;11.560;2023-05-07T00:19:06;11.30;;;7.70;;
23496;SDS011;11925;48.122;11.560;2023-05-07T00:21:34;9.32;;;7.05;;
23496;SDS011;11925;48.122;11.560;2023-05-07T00:24:03;9.68;;;7.30;;
23496;SDS011;11925;48.122;11.560;2023-05-07T00:26:31;10.02;;;6.70;;
23496;SDS011;11925;48.122;11.560;2023-05-07T00:29:00;9.60;;;7.20;;
23496;SDS011;11925;48.122;11.560;2023-05-07T00:31:28;9.82;;;7.13;;
23496;SDS011;11925;48.122;11.560;2023-05-07T00:33:58;9.15;;;6.65;;
23496;SDS011;11925;48.122;11.560;2023-05-07T00:36:26;10.13;;;7.22;;
23496;SDS011;11925;48.122;11.560;2023-05-07T00:38:56;10.00;;;6.80;;
23496;SDS011;11925;48.122;11.560;2023-05-07T00:41:26;8.77;;;6.50;;
23496;SDS011;11925;48.122;11.560;2023-05-07T00:43:54;10.55;;;7.07;;
23496;SDS011;11925;48.122;11.560;2023-05-07T00:46:23;11.32;;;6.78;;
23496;SDS011;11925;48.122;11.560;2023-05-07T00:48:52;11.60;;;6.40;;
23496;SDS011;11925;48.122;11.560;2023-05-07T00:51:23;8.10;;;6.72;;
23496;SDS011;11925;48.122;11.560;2023-05-07T00:53:53;7.75;;;6.40;;
23496;SDS011;11925;48.122;11.560;2023-05-07T00:56:22;9.43;;;6.75;;
23496;SDS011;11925;48.122;11.560;2023-05-07T00:58:51;7.43;;;6.50;;
23496;SDS011;11925;48.122;11.560;2023-05-07T01:01:19;10.23;;;6.55;;
23496;SDS011;11925;48.122;11.560;2023-05-07T01:03:48;8.85;;;6.93;;
23496;SDS011;11925;48.122;11.560;2023-05-07T01:06:16;8.48;;;6.90;;
23496;SDS011;11925;48.122;11.560;2023-05-07T01:08:47;10.68;;;6.40;;
23496;SDS011;11925;48.122;11.560;2023-05-07T01:11:19;11.07;;;6.90;;
23496;SDS011;11925;48.122;11.560;2023-05-07T01:13:48;10.68;;;6.80;;
23496;SDS011;11925;48.122;11.560;2023-05-07T01:16:18;9.43;;;6.70;;
23496;SDS011;11925;48.122;11.560;2023-05-07T01:18:46;10.13;;;6.25;;
23496;SDS011;11925;48.122;11.560;2023-05-07T01:21:15;8.95;;;6.20;;
23496;SDS011;11925;48.122;11.560;2023-05-07T01:23:46;8.68;;;6.50;;
23496;SDS011;11925;48.122;11.560;2023-05-07T01:26:15;9.27;;;6.32;;
23496;SDS011;11925;48.122;11.560;2023-05-07T01:28:46;11.00;;;6.80;;
23496;SDS011;11925;48.122;11.560;2023-05-07T01:31:14;9.45;;;6.03;;
23496;SDS011;11925;48.122;11.560;2023-05-07T01:33:44;9.40;;;6.25;;
23496;SDS011;11925;48.122;11.560;2023-05-07T01:36:16;7.38;;;5.97;;
23496;SDS011;11925;48.122;11.560;2023-05-07T01:38:47;8.95;;;6.15;;
23496;SDS011;11925;48.122;11.560;2023-05-07T01:41:16;7.80;;;6.45;;
23496;SDS011;11925;48.122;11.560;2023-05-07T01:43:45;9.15;;;6.70;;
23496;SDS011;11925;48.122;11.560;2023-05-07T01:46:14;8.98;;;6.47;;
23496;SDS011;11925;48.122;11.560;2023-05-07T01:48:43;8.02;;;6.10;;
23496;SDS011;11925;48.122;11.560;2023-05-07T01:51:12;11.27;;;6.85;;
23496;SDS011;11925;48.122;11.560;2023-05-07T01:53:41;8.57;;;6.40;;
23496;SDS011;11925;48.122;11.560;2023-05-07T01:56:11;7.95;;;5.82;;
23496;SDS011;11925;48.122;11.560;2023-05-07T01:58:41;8.02;;;5.88;;
23496;SDS011;11925;48.122;11.560;2023-05-07T02:01:09;10.07;;;5.68;;
23496;SDS011;11925;48.122;11.560;2023-05-07T02:03:38;6.82;;;5.22;;
23496;SDS011;11925;48.122;11.560;2023-05-07T02:06:14;7.68;;;5.95;;
23496;SDS011;11925;48.122;11.560;2023-05-07T02:08:42;9.13;;;5.90;;
23496;SDS011;11925;48.122;11.560;2023-05-07T02:11:13;8.23;;;5.85;;
23496;SDS011;11925;48.122;11.560;2023-05-07T02:13:42;5.55;;;5.05;;
23496;SDS011;11925;48.122;11.560;2023-05-07T02:16:11;8.93;;;5.85;;
23496;SDS011;11925;48.122;11.560;2023-05-07T02:18:40;8.48;;;5.78;;
23496;SDS011;11925;48.122;11.560;2023-05-07T02:21:09;7.05;;;5.35;;
23496;SDS011;11925;48.122;11.560;2023-05-07T02:23:37;7.53;;;5.88;;
23496;SDS011;11925;48.122;11.560;2023-05-07T02:26:06;6.20;;;5.25;;
23496;SDS011;11925;48.122;11.560;2023-05-07T02:28:36;6.85;;;5.40;;
23496;SDS011;11925;48.122;11.560;2023-05-07T02:31:05;9.48;;;5.72;;
23496;SDS011;11925;48.122;11.560;2023-05-07T02:33:34;12.00;;;6.00;;
23496;SDS011;11925;48.122;11.560;2023-05-07T02:36:06;7.90;;;5.63;;
23496;SDS011;11925;48.122;11.560;2023-05-07T02:38:40;6.40;;;5.07;;
23496;SDS011;11925;48.122;11.560;2023-05-07T02:41:09;7.72;;;5.40;;
23496;SDS011;11925;48.122;11.560;2023-05-07T02:43:39;8.63;;;5.45;;
23496;SDS011;11925;48.122;11.560;2023-05-07T02:46:08;7.28;;;5.65;;
23496;SDS011;11925;48.122;11.560;2023-05-07T02:48:41;5.72;;;5.13;;
23496;SDS011;11925;48.122;11.560;2023-05-07T02:51:09;7.80;;;5.00;;
23496;SDS011;11925;48.122;11.560;2023-05-07T02:53:40;8.27;;;5.68;;
23496;SDS011;11925;48.122;11.560;2023-05-07T02:56:08;7.40;;;5.00;;
23496;SDS011;11925;48.122;11.560;2023-05-07T02:58:38;8.52;;;5.18;;
23496;SDS011;11925;48.122;11.560;2023-05-07T03:01:07;7.32;;;5.72;;
23496;SDS011;11925;48.122;11.560;2023-05-07T03:03:42;7.75;;;5.32;;
23496;SDS011;11925;48.122;11.560;2023-05-07T03:06:12;6.80;;;5.47;;
23496;SDS011;11925;48.122;11.560;2023-05-07T03:08:40;7.55;;;5.15;;
23496;SDS011;11925;48.122;11.560;2023-05-07T03:11:08;7.10;;;5.35;;
23496;SDS011;11925;48.122;11.560;2023-05-07T03:13:38;6.78;;;5.20;;
23496;SDS011;11925;48.122;11.560;2023-05-07T03:16:07;7.53;;;5.20;;
23496;SDS011;11925;48.122;11.560;2023-05-07T03:18:35;7.10;;;5.25;;
23496;SDS011;11925;48.122;11.560;2023-05-07T03:21:04;6.47;;;5.07;;
23496;SDS011;11925;48.122;11.560;2023-05-07T03:23:33;6.90;;;5.15;;
23496;SDS011;11925;48.122;11.560;2023-05-07T03:26:01;6.75;;;5.15;;
23496;SDS011;11925;48.122;11.560;2023-05-07T03:28:30;7.15;;;5.15;;
23496;SDS011;11925;48.122;11.560;2023-05-07T03:31:03;5.70;;;4.40;;
23496;SDS011;11925;48.122;11.560;2023-05-07T03:33:32;7.70;;;5.13;;
23496;SDS011;11925;48.122;11.560;2023-05-07T03:36:01;5.03;;;4.53;;
23496;SDS011;11925;48.122;11.560;2023-05-07T03:38:29;7.65;;;4.55;;
23496;SDS011;11925;48.122;11.560;2023-05-07T03:40:58;6.45;;;5.00;;
23496;SDS011;11925;48.122;11.560;2023-05-07T03:43:27;7.30;;;4.60;;
23496;SDS011;11925;48.122;11.560;2023-05-07T03:46:03;6.15;;;4.75;;
23496;SDS011;11925;48.122;11.560;2023-05-07T03:48:32;7.07;;;5.00;;
23496;SDS011;11925;48.122;11.560;2023-05-07T03:51:01;5.95;;;4.78;;
23496;SDS011;11925;48.122;11.560;2023-05-07T03:53:31;6.80;;;4.88;;
23496;SDS011;11925;48.122;11.560;2023-05-07T03:56:00;7.20;;;4.80;;
23496;SDS011;11925;48.122;11.560;2023-05-07T03:58:33;8.52;;;5.10;;
23496;SDS011;11925;48.122;11.560;2023-05-07T04:01:08;6.40;;;5.15;;
23496;SDS011;11925;48.122;11.560;2023-05-07T04:03:36;6.25;;;5.38;;
23496;SDS011;11925;48.122;11.560;2023-05-07T04:06:06;7.60;;;5.70;;
23496;SDS011;11925;48.122;11.560;2023-05-07T04:08:35;7.78;;;5.85;;
23496;SDS011;11925;48.122;11.560;2023-05-07T04:11:05;7.38;;;5.47;;
23496;SDS011;11925;48.122;11.560;2023-05-07T04:13:36;8.63;;;5.65;;
23496;SDS011;11925;48.122;11.560;2023-05-07T04:16:08;6.40;;;5.10;;
23496;SDS011;11925;48.122;11.560;2023-05-07T04:18:37;6.90;;;5.53;;
23496;SDS011;11925;48.122;11.560;2023-05-07T04:21:05;5.95;;;4.85;;
23496;SDS011;11925;48.122;11.560;2023-05-07T04:23:41;7.90;;;4.75;;
23496;SDS011;11925;48.122;11.560;2023-05-07T04:26:11;7.32;;;4.85;;
23496;SDS011;11925;48.122;11.560;2023-05-07T04:31:16;5.72;;;4.65;;
23496;SDS011;11925;48.122;11.560;2023-05-07T04:33:49;8.50;;;5.25;;
23496;SDS011;11925;48.122;11.560;2023-05-07T04:36:19;6.55;;;5.05;;
23496;SDS011;11925;48.122;11.560;2023-05-07T04:38:54;7.20;;;4.75;;
23496;SDS011;11925;48.122;11.560;2023-05-07T04:41:22;6.40;;;4.60;;
23496;SDS011;11925;48.122;11.560;2023-05-07T04:43:50;7.65;;;4.10;;
23496;SDS011;11925;48.122;11.560;2023-05-07T04:46:23;6.38;;;4.47;;
23496;SDS011;11925;48.122;11.560;2023-05-07T04:48:53;4.45;;;3.90;;
23496;SDS011;11925;48.122;11.560;2023-05-07T04:51:22;4.55;;;4.15;;
23496;SDS011;11925;48.122;11.560;2023-05-07T04:53:50;5.20;;;4.03;;
23496;SDS011;11925;48.122;11.560;2023-05-07T04:56:19;5.00;;;4.50;;
23496;SDS011;11925;48.122;11.560;2023-05-07T04:58:47;6.38;;;4.55;;
23496;SDS011;11925;48.122;11.560;2023-05-07T05:01:19;5.25;;;4.40;;
23496;SDS011;11925;48.122;11.560;2023-05-07T05:03:49;5.85;;;4.88;;
23496;SDS011;11925;48.122;11.560;2023-05-07T05:06:18;4.57;;;4.05;;
23496;SDS011;11925;48.122;11.560;2023-05-07T05:08:47;5.22;;;4.22;;
23496;SDS011;11925;48.122;11.560;2023-05-07T05:11:15;7.30;;;4.50;;
23496;SDS011;11925;48.122;11.560;2023-05-07T05:13:44;5.22;;;4.07;;
23496;SDS011;11925;48.122;11.560;2023-05-07T05:16:18;12.27;;;5.20;;
23496;SDS011;11925;48.122;11.560;2023-05-07T05:18:48;5.15;;;4.30;;
23496;SDS011;11925;48.122;11.560;2023-05-07T05:21:18;5.60;;;4.57;;
23496;SDS011;11925;48.122;11.560;2023-05-07T05:26:21;4.25;;;3.85;;
23496;SDS011;11925;48.122;11.560;2023-05-07T05:28:50;5.20;;;3.90;;
23496;SDS011;11925;48.122;11.560;2023-05-07T05:31:21;5.13;;;4.63;;
23496;SDS011;11925;48.122;11.560;2023-05-07T05:33:52;5.00;;;4.40;;
23496;SDS011;11925;48.122;11.560;2023-05-07T05:36:20;4.90;;;4.05;;
23496;SDS011;11925;48.122;11.560;2023-05-07T05:38:50;5.75;;;4.05;;
23496;SDS011;11925;48.122;11.560;2023-05-07T05:41:20;5.00;;;4.32;;
23496;SDS011;11925;48.122;11.560;2023-05-07T05:43:49;5.25;;;4.32;;
23496;SDS011;11925;48.122;11.560;2023-05-07T05:46:20;4.93;;;4.13;;
23496;SDS011;11925;48.122;11.560;2023-05-07T05:48:51;4.93;;;4.18;;
23496;SDS011;11925;48.122;11.560;2023-05-07T05:51:20;5.85;;;4.43;;
23496;SDS011;11925;48.122;11.560;2023-05-07T05:53:49;6.50;;;4.30;;
23496;SDS011;11925;48.122;11.560;2023-05-07T05:56:18;6.93;;;4.70;;
23496;SDS011;11925;48.122;11.560;2023-05-07T05:58:47;6.30;;;4.57;;
23496;SDS011;11925;48.122;11.560;2023-05-07T06:01:16;5.57;;;4.50;;
23496;SDS011;11925;48.122;11.560;2023-05-07T06:03:46;5.28;;;4.47;;
23496;SDS011;11925;48.122;11.560;2023-05-07T06:06:16;6.60;;;4.35;;
23496;SDS011;11925;48.122;11.560;2023-05-07T06:08:45;8.27;;;5.00;;
23496;SDS011;11925;48.122;11.560;2023-05-07T06:11:18;7.75;;;4.93;;
23496;SDS011;11925;48.122;11.560;2023-05-07T06:13:47;7.05;;;5.18;;
23496;SDS011;11925;48.122;11.560;2023-05-07T06:16:16;6.05;;;4.53;;
23496;SDS011;11925;48.122;11.560;2023-05-07T06:18:45;6.90;;;5.07;;
23496;SDS011;11925;48.122;11.560;2023-05-07T06:21:15;6.68;;;4.55;;
23496;SDS011;11925;48.122;11.560;2023-05-07T06:23:45;5.78;;;5.18;;
23496;SDS011;11925;48.122;11.560;2023-05-07T06:26:13;7.03;;;5.05;;
23496;SDS011;11925;48.122;11.560;2023-05-07T06:28:45;5.07;;;4.35;;
23496;SDS011;11925;48.122;11.560;2023-05-07T06:31:15;6.00;;;4.55;;
23496;SDS011;11925;48.122;11.560;2023-05-07T06:33:58;6.47;;;5.03;;
23496;SDS011;11925;48.122;11.560;2023-05-07T06:36:36;5.00;;;4.40;;
23496;SDS011;11925;48.122;11.560;2023-05-07T06:39:14;5.63;;;4.45;;
23496;SDS011;11925;48.122;11.560;2023-05-07T06:41:42;6.47;;;4.82;;
23496;SDS011;11925;48.122;11.560;2023-05-07T06:44:21;6.65;;;4.78;;
23496;SDS011;11925;48.122;11.560;2023-05-07T06:46:58;6.18;;;5.10;;
23496;SDS011;11925;48.122;11.560;2023-05-07T06:49:28;5.88;;;4.40;;
23496;SDS011;11925;48.122;11.560;2023-05-07T06:51:58;5.30;;;3.90;;
23496;SDS011;11925;48.122;11.560;2023-05-07T06:54:28;5.75;;;4.88;;
23496;SDS011;11925;48.122;11.560;2023-05-07T06:56:57;5.07;;;4.40;;
23496;SDS011;11925;48.122;11.560;2023-05-07T06:59:26;5.97;;;4.70;;
23496;SDS011;11925;48.122;11.560;2023-05-07T07:01:55;5.97;;;4.35;;
23496;SDS011;11925;48.122;11.560;2023-05-07T07:04:23;6.30;;;4.32;;
23496;SDS011;11925;48.122;11.560;2023-05-07T07:07:01;5.68;;;4.55;;
23496;SDS011;11925;48.122;11.560;2023-05-07T07:09:29;5.65;;;3.72;;
23496;SDS011;11925;48.122;11.560;2023-05-07T07:11:59;5.80;;;4.60;;
23496;SDS011;11925;48.122;11.560;2023-05-07T07:14:28;6.13;;;4.95;;
23496;SDS011;11925;48.122;11.560;2023-05-07T07:16:57;6.43;;;4.53;;
23496;SDS011;11925;48.122;11.560;2023-05-07T07:19:26;6.57;;;4.35;;
23496;SDS011;11925;48.122;11.560;2023-05-07T07:21:55;4.78;;;3.92;;
23496;SDS011;11925;48.122;11.560;2023-05-07T07:24:25;5.93;;;4.15;;
23496;SDS011;11925;48.122;11.560;2023-05-07T07:26:58;5.65;;;4.40;;
23496;SDS011;11925;48.122;11.560;2023-05-07T07:29:27;4.75;;;4.20;;
23496;SDS011;11925;48.122;11.560;2023-05-07T07:31:56;5.40;;;4.13;;
23496;SDS011;11925;48.122;11.560;2023-05-07T07:34:25;6.15;;;4.35;;
23496;SDS011;11925;48.122;11.560;2023-05-07T07:36:53;6.20;;;4.50;;
23496;SDS011;11925;48.122;11.560;2023-05-07T07:39:23;5.60;;;4.40;;
23496;SDS011;11925;48.122;11.560;2023-05-07T07:44:26;4.65;;;3.80;;
23496;SDS011;11925;48.122;11.560;2023-05-07T07:47:00;5.20;;;4.05;;
23496;SDS011;11925;48.122;11.560;2023-05-07T07:49:29;4.55;;;4.15;;
23496;SDS011;11925;48.122;11.560;2023-05-07T07:52:01;5.65;;;4.05;;
23496;SDS011;11925;48.122;11.560;2023-05-07T07:54:32;5.50;;;4.20;;
23496;SDS011;11925;48.122;11.560;2023-05-07T07:57:03;4.63;;;3.67;;
23496;SDS011;11925;48.122;11.560;2023-05-07T07:59:32;4.85;;;4.10;;
23496;SDS011;11925;48.122;11.560;2023-05-07T08:02:01;4.47;;;4.05;;
23496;SDS011;11925;48.122;11.560;2023-05-07T08:04:29;4.30;;;3.90;;
23496;SDS011;11925;48.122;11.560;2023-05-07T08:07:02;4.53;;;3.90;;
23496;SDS011;11925;48.122;11.560;2023-05-07T08:09:35;6.60;;;4.03;;
23496;SDS011;11925;48.122;11.560;2023-05-07T08:12:06;5.15;;;3.80;;
23496;SDS011;11925;48.122;11.560;2023-05-07T08:14:35;4.70;;;4.00;;
23496;SDS011;11925;48.122;11.560;2023-05-07T08:17:05;5.05;;;3.80;;
23496;SDS011;11925;48.122;11.560;2023-05-07T08:19:36;4.18;;;3.67;;
23496;SDS011;11925;48.122;11.560;2023-05-07T08:22:07;5.00;;;3.73;;
23496;SDS011;11925;48.122;11.560;2023-05-07T08:24:38;4.55;;;3.70;;
23496;SDS011;11925;48.122;11.560;2023-05-07T08:27:08;4.90;;;3.78;;
23496;SDS011;11925;48.122;11.560;2023-05-07T08:29:39;5.18;;;4.20;;
23496;SDS011;11925;48.122;11.560;2023-05-07T08:32:07;5.65;;;3.88;;
23496;SDS011;11925;48.122;11.560;2023-05-07T08:34:36;4.22;;;3.83;;
23496;SDS011;11925;48.122;11.560;2023-05-07T08:37:05;4.97;;;3.90;;
23496;SDS011;11925;48.122;11.560;2023-05-07T08:39:34;4.82;;;4.07;;
23496;SDS011;11925;48.122;11.560;2023-05-07T08:42:06;7.20;;;4.22;;
23496;SDS011;11925;48.122;11.560;2023-05-07T08:44:38;5.72;;;4.10;;
23496;SDS011;11925;48.122;11.560;2023-05-07T08:47:09;4.93;;;4.25;;
23496;SDS011;11925;48.122;11.560;2023-05-07T08:49:38;4.78;;;3.92;;
23496;SDS011;11925;48.122;11.560;2023-05-07T08:52:07;4.78;;;4.07;;
23496;SDS011;11925;48.122;11.560;2023-05-07T08:54:37;4.93;;;4.00;;
23496;SDS011;11925;48.122;11.560;2023-05-07T08:59:39;5.63;;;4.28;;
23496;SDS011;11925;48.122;11.560;2023-05-07T09:02:09;4.35;;;3.92;;
23496;SDS011;11925;48.122;11.560;2023-05-07T09:04:39;4.70;;;3.92;;
23496;SDS011;11925;48.122;11.560;2023-05-07T09:07:07;5.22;;;3.97;;
23496;SDS011;11925;48.122;11.560;2023-05-07T09:09:40;4.97;;;3.90;;
23496;SDS011;11925;48.122;11.560;2023-05-07T09:12:08;5.85;;;3.78;;
23496;SDS011;11925;48.122;11.560;2023-05-07T09:14:37;4.85;;;3.90;;
23496;SDS011;11925;48.122;11.560;2023-05-07T09:17:07;5.05;;;4.35;;
23496;SDS011;11925;48.122;11.560;2023-05-07T09:19:37;5.78;;;4.47;;
23496;SDS011;11925;48.122;11.560;2023-05-07T09:22:07;7.97;;;3.95;;
23496;SDS011;11925;48.122;11.560;2023-05-07T09:24:47;5.32;;;4.32;;
23496;SDS011;11925;48.122;11.560;2023-05-07T09:27:17;5.28;;;4.35;;
23496;SDS011;11925;48.122;11.560;2023-05-07T09:29:48;5.00;;;3.83;;
23496;SDS011;11925;48.122;11.560;2023-05-07T09:32:16;5.57;;;3.90;;
23496;SDS011;11925;48.122;11.560;2023-05-07T09:34:45;5.10;;;4.07;;
23496;SDS011;11925;48.122;11.560;2023-05-07T09:37:17;7.40;;;4.10;;
23496;SDS011;11925;48.122;11.560;2023-05-07T09:39:46;4.60;;;3.80;;
23496;SDS011;11925;48.122;11.560;2023-05-07T09:42:22;6.05;;;4.30;;
23496;SDS011;11925;48.122;11.560;2023-05-07T09:44:53;5.70;;;4.22;;
23496;SDS011;11925;48.122;11.560;2023-05-07T09:47:25;6.22;;;3.85;;
23496;SDS011;11925;48.122;11.560;2023-05-07T09:50:00;4.45;;;3.83;;
23496;SDS011;11925;48.122;11.560;2023-05-07T09:52:33;5.07;;;3.88;;
23496;SDS011;11925;48.122;11.560;2023-05-07T09:55:05;4.70;;;3.92;;
23496;SDS011;11925;48.122;11.560;2023-05-07T09:57:35;4.18;;;3.72;;
23496;SDS011;11925;48.122;11.560;2023-05-07T10:00:09;5.85;;;4.15;;
23496;SDS011;11925;48.122;11.560;2023-05-07T10:02:57;5.18;;;3.55;;
23496;SDS011;11925;48.122;11.560;2023-05-07T10:05:36;5.50;;;3.72;;
23496;SDS011;11925;48.122;11.560;2023-05-07T10:08:06;5.78;;;4.05;;
23496;SDS011;11925;48.122;11.560;2023-05-07T10:10:37;5.20;;;3.60;;
23496;SDS011;11925;48.122;11.560;2023-05-07T10:13:08;4.00;;;3.47;;
23496;SDS011;11925;48.122;11.560;2023-05-07T10:15:44;3.90;;;3.35;;
23496;SDS011;11925;48.122;11.560;2023-05-07T10:18:14;4.25;;;3.45;;
23496;SDS011;11925;48.122;11.560;2023-05-07T10:20:47;5.40;;;3.80;;
23496;SDS011;11925;48.122;11.560;2023-05-07T10:23:19;4.93;;;3.65;;
23496;SDS011;11925;48.122;11.560;2023-05-07T10:25:55;4.72;;;3.75;;
23496;SDS011;11925;48.122;11.560;2023-05-07T10:28:30;5.85;;;3.80;;
23496;SDS011;11925;48.122;11.560;2023-05-07T10:31:23;4.97;;;3.55;;
23496;SDS011;11925;48.122;11.560;2023-05-07T10:34:07;6.40;;;4.18;;
23496;SDS011;11925;48.122;11.560;2023-05-07T10:36:37;4.75;;;3.70;;
23496;SDS011;11925;48.122;11.560;2023-05-07T10:39:07;4.10;;;3.70;;
23496;SDS011;11925;48.122;11.560;2023-05-07T10:41:37;4.18;;;3.70;;
23496;SDS011;11925;48.122;11.560;2023-05-07T10:44:06;7.70;;;4.03;;
23496;SDS011;11925;48.122;11.560;2023-05-07T10:46:36;3.70;;;3.28;;
23496;SDS011;11925;48.122;11.560;2023-05-07T10:49:14;5.47;;;3.65;;
23496;SDS011;11925;48.122;11.560;2023-05-07T10:52:12;5.25;;;3.80;;
23496;SDS011;11925;48.122;11.560;2023-05-07T10:55:19;4.70;;;3.70;;
23496;SDS011;11925;48.122;11.560;2023-05-07T10:58:24;3.75;;;3.17;;
23496;SDS011;11925;48.122;11.560;2023-05-07T11:01:30;6.95;;;3.88;;
23496;SDS011;11925;48.122;11.560;2023-05-07T11:04:26;4.57;;;3.70;;
23496;SDS011;11925;48.122;11.560;2023-05-07T11:10:07;5.40;;;3.80;;
23496;SDS011;11925;48.122;11.560;2023-05-07T11:12:49;4.93;;;3.42;;
23496;SDS011;11925;48.122;11.560;2023-05-07T11:15:34;4.57;;;3.20;;
23496;SDS011;11925;48.122;11.560;2023-05-07T11:18:17;4.25;;;3.53;;
23496;SDS011;11925;48.122;11.560;2023-05-07T11:20:52;6.20;;;3.20;;
23496;SDS011;11925;48.122;11.560;2023-05-07T11:23:55;3.20;;;2.90;;
23496;SDS011;11925;48.122;11.560;2023-05-07T11:26:47;5.50;;;3.30;;
23496;SDS011;11925;48.122;11.560;2023-05-07T11:29:20;4.45;;;3.35;;
23496;SDS011;11925;48.122;11.560;2023-05-07T11:31:55;5.25;;;3.65;;
23496;SDS011;11925;48.122;11.560;2023-05-07T11:34:30;5.15;;;3.30;;
23496;SDS011;11925;48.122;11.560;2023-05-07T11:36:59;3.65;;;3.03;;
23496;SDS011;11925;48.122;11.560;2023-05-07T11:39:49;5.20;;;3.45;;
23496;SDS011;11925;48.122;11.560;2023-05-07T11:42:27;5.80;;;3.67;;
23496;SDS011;11925;48.122;11.560;2023-05-07T11:44:56;5.70;;;3.78;;
23496;SDS011;11925;48.122;11.560;2023-05-07T11:47:25;5.53;;;3.90;;
23496;SDS011;11925;48.122;11.560;2023-05-07T11:49:55;6.03;;;4.13;;
23496;SDS011;11925;48.122;11.560;2023-05-07T11:52:24;6.07;;;4.20;;
23496;SDS011;11925;48.122;11.560;2023-05-07T11:54:52;4.63;;;3.97;;
23496;SDS011;11925;48.122;11.560;2023-05-07T11:57:22;4.97;;;3.70;;
23496;SDS011;11925;48.122;11.560;2023-05-07T11:59:52;4.22;;;3.83;;
23496;SDS011;11925;48.122;11.560;2023-05-07T12:02:21;5.05;;;4.05;;
23496;SDS011;11925;48.122;11.560;2023-05-07T12:04:51;5.65;;;4.20;;
23496;SDS011;11925;48.122;11.560;2023-05-07T12:07:21;5.50;;;4.40;;
23496;SDS011;11925;48.122;11.560;2023-05-07T12:12:21;5.90;;;4.25;;
23496;SDS011;11925;48.122;11.560;2023-05-07T12:14:49;6.15;;;4.57;;
23496;SDS011;11925;48.122;11.560;2023-05-07T12:17:17;6.20;;;4.57;;
23496;SDS011;11925;48.122;11.560;2023-05-07T12:19:46;5.47;;;4.93;;
23496;SDS011;11925;48.122;11.560;2023-05-07T12:22:15;5.10;;;4.53;;
23496;SDS011;11925;48.122;11.560;2023-05-07T12:24:45;5.75;;;4.63;;
23496;SDS011;11925;48.122;11.560;2023-05-07T12:27:15;7.32;;;5.03;;
23496;SDS011;11925;48.122;11.560;2023-05-07T12:29:45;6.93;;;4.95;;
23496;SDS011;11925;48.122;11.560;2023-05-07T12:32:14;6.55;;;4.55;;
23496;SDS011;11925;48.122;11.560;2023-05-07T12:34:43;5.30;;;4.78;;
23496;SDS011;11925;48.122;11.560;2023-05-07T12:37:12;6.13;;;4.82;;
23496;SDS011;11925;48.122;11.560;2023-05-07T12:39:46;6.75;;;4.93;;
23496;SDS011;11925;48.122;11.560;2023-05-07T12:42:16;5.90;;;4.80;;
23496;SDS011;11925;48.122;11.560;2023-05-07T12:44:49;7.32;;;4.88;;
23496;SDS011;11925;48.122;11.560;2023-05-07T12:47:18;5.57;;;4.88;;
23496;SDS011;11925;48.122;11.560;2023-05-07T12:49:48;8.40;;;5.32;;
23496;SDS011;11925;48.122;11.560;2023-05-07T12:52:16;7.05;;;5.47;;
23496;SDS011;11925;48.122;11.560;2023-05-07T12:54:46;6.03;;;4.85;;
23496;SDS011;11925;48.122;11.560;2023-05-07T12:57:15;5.63;;;4.32;;
23496;SDS011;11925;48.122;11.560;2023-05-07T12:59:47;7.10;;;4.65;;
23496;SDS011;11925;48.122;11.560;2023-05-07T13:02:15;6.68;;;4.78;;
23496;SDS011;11925;48.122;11.560;2023-05-07T13:04:43;6.65;;;4.82;;
23496;SDS011;11925;48.122;11.560;2023-05-07T13:07:12;5.47;;;4.57;;
23496;SDS011;11925;48.122;11.560;2023-05-07T13:09:40;7.13;;;4.63;;
23496;SDS011;11925;48.122;11.560;2023-05-07T13:12:10;6.55;;;4.68;;
23496;SDS011;11925;48.122;11.560;2023-05-07T13:14:38;5.15;;;4.35;;
23496;SDS011;11925;48.122;11.560;2023-05-07T13:17:06;6.30;;;4.07;;
23496;SDS011;11925;48.122;11.560;2023-05-07T13:19:34;5.80;;;4.47;;
23496;SDS011;11925;48.122;11.560;2023-05-07T13:22:03;6.70;;;4.68;;
23496;SDS011;11925;48.122;11.560;2023-05-07T13:24:32;5.25;;;4.10;;
23496;SDS011;11925;48.122;11.560;2023-05-07T13:27:00;6.07;;;4.25;;
23496;SDS011;11925;48.122;11.560;2023-05-07T13:29:30;4.88;;;3.88;;
23496;SDS011;11925;48.122;11.560;2023-05-07T13:31:59;5.35;;;4.18;;
23496;SDS011;11925;48.122;11.560;2023-05-07T13:34:27;6.95;;;3.90;;
23496;SDS011;11925;48.122;11.560;2023-05-07T13:36:56;4.55;;;4.05;;
23496;SDS011;11925;48.122;11.560;2023-05-07T13:39:24;5.50;;;4.10;;
23496;SDS011;11925;48.122;11.560;2023-05-07T13:41:52;5.97;;;4.20;;
23496;SDS011;11925;48.122;11.560;2023-05-07T13:44:21;5.07;;;4.05;;
23496;SDS011;11925;48.122;11.560;2023-05-07T13:46:50;5.57;;;4.00;;
23496;SDS011;11925;48.122;11.560;2023-05-07T13:49:19;5.82;;;3.95;;
23496;SDS011;11925;48.122;11.560;2023-05-07T13:51:47;4.47;;;3.70;;
23496;SDS011;11925;48.122;11.560;2023-05-07T13:54:15;5.90;;;4.18;;
23496;SDS011;11925;48.122;11.560;2023-05-07T13:56:44;4.03;;;3.40;;
23496;SDS011;11925;48.122;11.560;2023-05-07T13:59:12;3.97;;;3.55;;
23496;SDS011;11925;48.122;11.560;2023-05-07T14:01:41;4.90;;;3.85;;
23496;SDS011;11925;48.122;11.560;2023-05-07T14:04:10;3.60;;;3.30;;
23496;SDS011;11925;48.122;11.560;2023-05-07T14:06:39;4.65;;;3.58;;
23496;SDS011;11925;48.122;11.560;2023-05-07T14:09:08;2.97;;;2.55;;
23496;SDS011;11925;48.122;11.560;2023-05-07T14:11:38;4.72;;;3.65;;
23496;SDS011;11925;48.122;11.560;2023-05-07T14:14:07;4.20;;;3.00;;
23496;SDS011;11925;48.122;11.560;2023-05-07T14:16:37;3.63;;;2.95;;
23496;SDS011;11925;48.122;11.560;2023-05-07T14:19:05;4.22;;;3.28;;
23496;SDS011;11925;48.122;11.560;2023-05-07T14:21:35;3.55;;;3.20;;
23496;SDS011;11925;48.122;11.560;2023-05-07T14:24:03;5.15;;;3.47;;
23496;SDS011;11925;48.122;11.560;2023-05-07T14:26:33;4.80;;;3.70;;
23496;SDS011;11925;48.122;11.560;2023-05-07T14:29:02;4.80;;;3.58;;
23496;SDS011;11925;48.122;11.560;2023-05-07T14:31:30;3.78;;;3.30;;
23496;SDS011;11925;48.122;11.560;2023-05-07T14:33:59;4.43;;;3.72;;
23496;SDS011;11925;48.122;11.560;2023-05-07T14:36:28;4.63;;;3.50;;
23496;SDS011;11925;48.122;11.560;2023-05-07T14:38:59;6.13;;;3.60;;
23496;SDS011;11925;48.122;11.560;2023-05-07T14:41:28;5.68;;;3.58;;
23496;SDS011;11925;48.122;11.560;2023-05-07T14:43:58;4.93;;;3.40;;
23496;SDS011;11925;48.122;11.560;2023-05-07T14:46:26;4.45;;;3.65;;
23496;SDS011;11925;48.122;11.560;2023-05-07T14:48:56;5.18;;;3.60;;
23496;SDS011;11925;48.122;11.560;2023-05-07T14:51:25;4.15;;;3.50;;
23496;SDS011;11925;48.122;11.560;2023-05-07T14:53:54;4.82;;;3.90;;
23496;SDS011;11925;48.122;11.560;2023-05-07T14:56:24;5.38;;;3.92;;
23496;SDS011;11925;48.122;11.560;2023-05-07T14:58:52;4.32;;;3.67;;
23496;SDS011;11925;48.122;11.560;2023-05-07T15:01:20;5.63;;;3.95;;
23496;SDS011;11925;48.122;11.560;2023-05-07T15:03:49;4.80;;;4.00;;
23496;SDS011;11925;48.122;11.560;2023-05-07T15:06:17;7.13;;;4.22;;
23496;SDS011;11925;48.122;11.560;2023-05-07T15:08:45;4.53;;;3.88;;
23496;SDS011;11925;48.122;11.560;2023-05-07T15:11:14;4.97;;;3.80;;